createdAt,value
2019-01-27T00:01:25.896Z,0.57
2019-01-27T00:03:54.775Z,0.80
2019-01-27T00:06:23.766Z,0.73
2019-01-27T00:08:53.097Z,0.68
2019-01-27T00:11:22.022Z,0.70
2019-01-27T00:13:51.554Z,0.60
2019-01-27T00:16:20.850Z,0.70
2019-01-27T00:18:49.882Z,1.00
2019-01-27T00:21:18.778Z,0.70
2019-01-27T00:23:47.696Z,0.60
2019-01-27T00:26:16.648Z,0.50
2019-01-27T00:28:45.630Z,0.72
2019-01-27T00:31:14.686Z,0.60
2019-01-27T00:33:43.681Z,0.60
2019-01-27T00:36:13.178Z,0.60
2019-01-27T00:38:42.086Z,0.47
2019-01-27T00:41:11.111Z,0.50
2019-01-27T00:43:40.132Z,0.40
2019-01-27T00:46:09.484Z,0.50
2019-01-27T00:48:38.353Z,0.68
2019-01-27T00:51:07.381Z,0.50
2019-01-27T00:53:36.622Z,0.57
2019-01-27T00:56:06.508Z,0.30
2019-01-27T00:58:35.619Z,0.47
2019-01-27T01:01:04.788Z,0.37
2019-01-27T01:03:33.763Z,0.25
2019-01-27T01:06:03.154Z,0.40
2019-01-27T01:08:32.121Z,0.40
2019-01-27T01:11:01.119Z,0.30
2019-01-27T01:13:30.135Z,0.60
2019-01-27T01:15:58.959Z,0.53
2019-01-27T01:18:28.210Z,0.60
2019-01-27T01:20:57.856Z,0.40
2019-01-27T01:23:26.841Z,0.65
2019-01-27T01:25:55.770Z,0.50
2019-01-27T01:28:24.908Z,0.55
2019-01-27T01:30:53.970Z,0.60
2019-01-27T01:33:23.107Z,0.40
2019-01-27T01:35:52.484Z,0.40
2019-01-27T01:38:21.551Z,0.50
2019-01-27T01:40:50.792Z,0.50
2019-01-27T01:43:19.721Z,0.62
2019-01-27T01:45:49.109Z,0.30
2019-01-27T01:48:18.148Z,0.57
2019-01-27T01:50:47.030Z,0.40
2019-01-27T01:53:16.110Z,0.40
2019-01-27T01:55:45.268Z,0.60
2019-01-27T01:58:14.247Z,0.40
2019-01-27T02:00:43.293Z,0.40
2019-01-27T02:03:12.792Z,0.50
2019-01-27T02:05:42.099Z,0.63
2019-01-27T02:08:11.266Z,0.35
2019-01-27T02:10:40.584Z,0.40
2019-01-27T02:13:09.612Z,0.40
2019-01-27T02:16:05.042Z,0.40
2019-01-27T02:18:34.269Z,0.50
2019-01-27T02:21:03.875Z,0.37
2019-01-27T02:23:32.858Z,0.40
2019-01-27T02:26:01.760Z,0.40
2019-01-27T02:28:30.756Z,0.40
2019-01-27T02:31:00.058Z,0.40
2019-01-27T02:33:29.116Z,0.40
2019-01-27T02:35:58.022Z,0.30
2019-01-27T02:38:27.409Z,0.47
2019-01-27T02:40:56.384Z,0.50
2019-01-27T02:43:25.736Z,0.53
2019-01-27T02:45:54.789Z,0.50
2019-01-27T02:48:23.821Z,0.45
2019-01-27T02:50:52.638Z,0.47
2019-01-27T02:53:21.819Z,0.50
2019-01-27T02:55:51.034Z,0.40
2019-01-27T02:58:19.927Z,0.30
2019-01-27T03:00:49.092Z,0.40
2019-01-27T03:03:18.815Z,0.30
2019-01-27T03:06:16.091Z,0.37
2019-01-27T03:09:06.039Z,0.40
2019-01-27T03:11:51.106Z,0.40
2019-01-27T03:14:21.118Z,0.30
2019-01-27T03:16:51.868Z,0.27
2019-01-27T03:19:20.779Z,0.33
2019-01-27T03:21:49.833Z,0.40
2019-01-27T03:24:18.812Z,0.40
2019-01-27T03:26:48.039Z,0.30
2019-01-27T03:29:16.987Z,0.40
2019-01-27T03:31:45.924Z,0.30
2019-01-27T03:34:15.119Z,0.30
2019-01-27T03:36:44.056Z,0.40
2019-01-27T03:39:13.098Z,0.30
2019-01-27T03:41:42.102Z,0.40
2019-01-27T03:44:11.571Z,0.37
2019-01-27T03:46:40.489Z,0.30
2019-01-27T03:49:09.555Z,0.30
2019-01-27T03:51:38.591Z,0.40
2019-01-27T03:54:07.807Z,0.30
2019-01-27T03:56:37.070Z,0.20
2019-01-27T03:59:06.360Z,0.20
2019-01-27T04:01:35.255Z,0.30
2019-01-27T04:04:05.579Z,0.30
2019-01-27T04:06:34.939Z,0.30
2019-01-27T04:09:05.671Z,0.20
2019-01-27T04:11:34.629Z,0.20
2019-01-27T04:14:03.642Z,0.20
2019-01-27T04:16:32.520Z,0.30
2019-01-27T04:19:02.127Z,0.20
2019-01-27T04:21:31.383Z,0.20
2019-01-27T04:24:00.411Z,0.10
2019-01-27T04:26:29.342Z,0.20
2019-01-27T04:28:59.024Z,0.20
2019-01-27T04:31:28.132Z,0.23
2019-01-27T04:33:57.016Z,0.20
2019-01-27T04:36:26.414Z,0.30
2019-01-27T04:38:55.288Z,0.20
2019-01-27T04:41:24.299Z,0.10
2019-01-27T04:43:53.259Z,0.10
2019-01-27T04:46:22.176Z,0.30
2019-01-27T04:48:51.172Z,0.20
2019-01-27T04:51:20.155Z,0.20
2019-01-27T04:53:49.046Z,0.20
2019-01-27T04:56:17.973Z,0.20
2019-01-27T04:58:47.081Z,0.20
2019-01-27T05:01:16.342Z,0.20
2019-01-27T05:03:53.204Z,0.30
2019-01-27T05:06:22.217Z,0.30
2019-01-27T05:08:51.129Z,0.30
2019-01-27T05:11:20.134Z,0.30
2019-01-27T05:13:49.542Z,0.20
2019-01-27T05:16:19.466Z,0.27
2019-01-27T05:18:48.815Z,0.20
2019-01-27T05:21:17.727Z,0.13
2019-01-27T05:23:46.718Z,0.10
2019-01-27T05:26:15.800Z,0.10
2019-01-27T05:28:44.815Z,0.17
2019-01-27T05:31:14.067Z,0.20
2019-01-27T05:33:43.243Z,0.20
2019-01-27T05:36:12.265Z,0.10
2019-01-27T05:38:41.171Z,0.13
2019-01-27T05:41:10.214Z,0.10
2019-01-27T05:43:39.196Z,0.68
2019-01-27T05:46:08.083Z,0.10
2019-01-27T05:48:37.122Z,0.20
2019-01-27T05:51:06.026Z,0.10
2019-01-27T05:53:35.274Z,0.30
2019-01-27T05:56:04.633Z,0.20
2019-01-27T05:58:33.698Z,0.15
2019-01-27T06:01:02.681Z,0.10
2019-01-27T06:03:31.887Z,0.20
2019-01-27T06:06:01.531Z,0.10
2019-01-27T06:08:30.819Z,0.30
2019-01-27T06:11:00.176Z,0.20
2019-01-27T06:13:29.090Z,0.20
2019-01-27T06:15:58.010Z,0.30
2019-01-27T06:18:27.657Z,0.20
2019-01-27T06:20:56.586Z,0.30
2019-01-27T06:23:25.716Z,0.10
2019-01-27T06:25:54.653Z,0.20
2019-01-27T06:28:23.616Z,0.05
2019-01-27T06:30:52.546Z,0.20
2019-01-27T06:33:46.454Z,0.30
2019-01-27T06:36:15.710Z,0.20
2019-01-27T06:38:44.973Z,0.35
2019-01-27T06:41:13.825Z,0.67
2019-01-27T06:43:42.873Z,0.30
2019-01-27T06:46:12.157Z,0.30
2019-01-27T06:48:41.063Z,0.15
2019-01-27T06:51:10.064Z,1.13
2019-01-27T06:53:39.069Z,0.50
2019-01-27T06:56:08.399Z,0.20
2019-01-27T06:58:55.460Z,0.40
2019-01-27T07:01:34.268Z,0.20
2019-01-27T07:04:34.688Z,0.30
2019-01-27T07:07:25.102Z,0.20
2019-01-27T07:10:11.644Z,0.50
2019-01-27T07:13:00.551Z,0.60
2019-01-27T07:15:54.447Z,1.60
2019-01-27T07:18:50.629Z,1.55
2019-01-27T07:21:28.546Z,0.68
2019-01-27T07:24:14.143Z,1.20
2019-01-27T07:26:54.499Z,2.10
2019-01-27T07:29:37.707Z,0.70
2019-01-27T07:32:28.977Z,2.20
2019-01-27T07:35:10.642Z,2.70
2019-01-27T07:37:51.143Z,1.00
2019-01-27T07:40:45.558Z,0.70
2019-01-27T07:43:24.430Z,1.07
2019-01-27T07:46:24.541Z,2.20
2019-01-27T07:49:11.145Z,1.98
2019-01-27T07:51:54.620Z,1.00
2019-01-27T07:54:41.471Z,1.37
2019-01-27T07:57:27.181Z,1.40
2019-01-27T08:00:15.255Z,1.72
2019-01-27T08:03:11.910Z,0.70
2019-01-27T08:05:52.551Z,2.73
2019-01-27T08:08:43.858Z,0.95
2019-01-27T08:11:22.661Z,0.60
2019-01-27T08:13:57.311Z,0.50
2019-01-27T08:17:00.574Z,0.30
2019-01-27T08:19:51.634Z,0.30
2019-01-27T08:22:38.356Z,0.62
2019-01-27T08:25:23.904Z,0.45
2019-01-27T08:28:10.513Z,0.40
2019-01-27T08:30:49.162Z,0.30
2019-01-27T08:33:49.229Z,0.50
2019-01-27T08:36:26.962Z,0.73
2019-01-27T08:39:21.354Z,0.50
2019-01-27T08:42:08.168Z,0.50
2019-01-27T08:44:56.254Z,0.40
2019-01-27T08:47:25.579Z,0.33
2019-01-27T08:49:54.631Z,0.60
2019-01-27T08:52:23.921Z,1.63
2019-01-27T08:54:52.851Z,6.62
2019-01-27T08:57:21.742Z,6.83
2019-01-27T08:59:50.878Z,3.33
2019-01-27T09:02:42.707Z,2.40
2019-01-27T09:05:17.575Z,1.40
2019-01-27T09:07:53.982Z,1.10
2019-01-27T09:10:50.106Z,2.65
2019-01-27T09:13:31.067Z,3.50
2019-01-27T09:16:17.022Z,2.37
2019-01-27T09:18:54.279Z,0.88
2019-01-27T09:21:40.907Z,0.90
2019-01-27T09:24:21.618Z,1.17
2019-01-27T09:27:05.169Z,1.00
2019-01-27T09:29:43.275Z,0.82
2019-01-27T09:32:23.534Z,0.70
2019-01-27T09:35:17.731Z,0.60
2019-01-27T09:38:13.006Z,1.70
2019-01-27T09:41:00.070Z,1.00
2019-01-27T09:44:06.634Z,0.70
2019-01-27T09:46:47.893Z,0.90
2019-01-27T09:49:39.418Z,0.72
2019-01-27T09:52:16.701Z,0.50
2019-01-27T09:55:03.640Z,0.82
2019-01-27T09:57:50.539Z,0.90
2019-01-27T10:00:38.639Z,0.65
2019-01-27T10:03:29.183Z,0.70
2019-01-27T10:06:20.200Z,0.50
2019-01-27T10:09:00.234Z,0.50
2019-01-27T10:11:51.382Z,0.70
2019-01-27T10:14:30.378Z,0.60
2019-01-27T10:17:25.063Z,0.53
2019-01-27T10:20:11.826Z,0.68
2019-01-27T10:23:03.205Z,0.65
2019-01-27T10:25:51.024Z,1.10
2019-01-27T10:28:27.596Z,0.85
2019-01-27T10:31:06.647Z,1.60
2019-01-27T10:33:52.610Z,1.10
2019-01-27T10:36:43.486Z,0.90
2019-01-27T10:39:22.042Z,1.10
2019-01-27T10:42:11.846Z,1.20
2019-01-27T10:45:02.947Z,1.17
2019-01-27T10:47:54.082Z,0.60
2019-01-27T10:50:35.845Z,0.78
2019-01-27T10:53:22.662Z,0.40
2019-01-27T10:56:13.714Z,0.60
2019-01-27T10:59:00.292Z,0.40
2019-01-27T11:01:46.039Z,0.80
2019-01-27T11:04:33.581Z,0.80
2019-01-27T11:07:36.714Z,0.40
2019-01-27T11:10:32.626Z,1.95
2019-01-27T11:13:09.257Z,0.85
2019-01-27T11:15:56.851Z,1.00
2019-01-27T11:18:45.012Z,0.90
2019-01-27T11:21:45.321Z,0.90
2019-01-27T11:24:23.809Z,0.50
2019-01-27T11:27:10.746Z,0.80
2019-01-27T11:29:57.679Z,0.90
2019-01-27T11:32:48.521Z,1.05
2019-01-27T11:35:35.476Z,0.70
2019-01-27T11:38:27.775Z,1.07
2019-01-27T11:41:14.690Z,0.50
2019-01-27T11:43:52.047Z,0.50
2019-01-27T11:46:38.582Z,8.43
2019-01-27T11:49:15.642Z,2.10
2019-01-27T11:51:51.509Z,2.43
2019-01-27T11:54:20.415Z,2.15
2019-01-27T11:56:49.219Z,2.10
2019-01-27T11:59:18.167Z,0.72
2019-01-27T12:01:47.147Z,1.17
2019-01-27T12:04:16.110Z,0.80
2019-01-27T12:06:45.050Z,0.60
2019-01-27T12:09:14.038Z,0.62
2019-01-27T12:11:43.010Z,0.30
2019-01-27T12:14:11.907Z,0.30
2019-01-27T12:16:41.030Z,0.80
2019-01-27T12:19:09.910Z,0.45
2019-01-27T12:21:38.803Z,0.57
2019-01-27T12:24:07.686Z,0.45
2019-01-27T12:26:36.614Z,0.40
2019-01-27T12:29:05.554Z,0.62
2019-01-27T12:31:34.546Z,0.50
2019-01-27T12:34:03.776Z,0.93
2019-01-27T12:36:32.679Z,0.70
2019-01-27T12:39:01.693Z,1.20
2019-01-27T12:41:30.614Z,1.07
2019-01-27T12:44:00.022Z,0.75
2019-01-27T12:46:29.018Z,0.67
2019-01-27T12:48:57.909Z,0.53
2019-01-27T12:51:26.750Z,0.90
2019-01-27T12:53:55.757Z,0.60
2019-01-27T12:56:24.655Z,0.27
2019-01-27T12:58:53.891Z,0.30
2019-01-27T13:01:22.935Z,0.30
2019-01-27T13:03:51.999Z,0.50
2019-01-27T13:06:21.160Z,0.20
2019-01-27T13:08:50.510Z,0.20
2019-01-27T13:11:19.534Z,0.45
2019-01-27T13:13:48.487Z,0.50
2019-01-27T13:16:17.850Z,0.40
2019-01-27T13:18:46.819Z,0.20
2019-01-27T13:21:15.791Z,0.80
2019-01-27T13:23:44.605Z,0.82
2019-01-27T13:26:13.774Z,0.40
2019-01-27T13:28:42.707Z,0.20
2019-01-27T13:31:11.632Z,1.30
2019-01-27T13:33:40.634Z,0.98
2019-01-27T13:36:10.067Z,0.57
2019-01-27T13:38:38.998Z,0.20
2019-01-27T13:41:07.911Z,0.20
2019-01-27T13:43:37.347Z,0.30
2019-01-27T13:46:06.356Z,0.50
2019-01-27T13:48:35.629Z,0.62
2019-01-27T13:51:04.633Z,0.20
2019-01-27T13:53:33.545Z,0.40
2019-01-27T13:56:02.549Z,2.30
2019-01-27T13:58:31.448Z,3.40
2019-01-27T14:01:00.395Z,1.00
2019-01-27T14:03:29.327Z,0.50
2019-01-27T14:05:58.338Z,0.77
2019-01-27T14:08:27.237Z,0.33
2019-01-27T14:10:56.195Z,0.73
2019-01-27T14:13:25.131Z,0.50
2019-01-27T14:15:54.162Z,0.53
2019-01-27T14:18:23.090Z,0.30
2019-01-27T14:20:52.138Z,0.47
2019-01-27T14:23:20.990Z,0.90
2019-01-27T14:25:49.800Z,0.33
2019-01-27T14:28:19.023Z,0.45
2019-01-27T14:30:47.927Z,0.43
2019-01-27T14:33:17.211Z,0.30
2019-01-27T14:35:46.188Z,0.30
2019-01-27T14:38:15.054Z,1.10
2019-01-27T14:40:44.068Z,0.90
2019-01-27T14:43:13.331Z,0.90
2019-01-27T14:45:42.586Z,0.80
2019-01-27T14:48:11.571Z,0.30
2019-01-27T14:50:45.589Z,0.30
2019-01-27T14:53:14.566Z,0.33
2019-01-27T14:55:43.558Z,0.20
2019-01-27T14:58:12.524Z,0.40
2019-01-27T15:00:43.210Z,0.25
2019-01-27T15:03:13.377Z,0.37
2019-01-27T15:05:42.218Z,0.30
2019-01-27T15:08:11.362Z,0.37
2019-01-27T15:10:41.873Z,0.50
2019-01-27T15:13:10.994Z,0.20
2019-01-27T15:15:40.087Z,0.40
2019-01-27T15:18:09.308Z,0.28
2019-01-27T15:20:53.331Z,0.40
2019-01-27T15:23:22.306Z,0.20
2019-01-27T15:25:51.319Z,0.30
2019-01-27T15:28:20.347Z,0.20
2019-01-27T15:30:49.651Z,0.37
2019-01-27T15:33:18.896Z,0.40
2019-01-27T15:35:47.968Z,0.30
2019-01-27T15:38:17.293Z,0.30
2019-01-27T15:40:46.355Z,0.50
2019-01-27T15:43:15.645Z,0.42
2019-01-27T15:45:44.838Z,0.40
2019-01-27T15:48:13.734Z,0.40
2019-01-27T15:50:42.785Z,0.43
2019-01-27T15:53:11.765Z,0.60
2019-01-27T15:55:40.790Z,0.53
2019-01-27T15:58:09.779Z,0.45
2019-01-27T16:00:38.750Z,0.60
2019-01-27T16:03:07.783Z,0.50
2019-01-27T16:05:36.674Z,0.83
2019-01-27T16:08:05.796Z,0.70
2019-01-27T16:10:34.804Z,0.70
2019-01-27T16:13:04.282Z,0.85
2019-01-27T16:15:33.947Z,0.60
2019-01-27T16:18:03.017Z,0.80
2019-01-27T16:20:32.031Z,0.60
2019-01-27T16:23:26.192Z,0.80
2019-01-27T16:25:55.894Z,0.77
2019-01-27T16:28:24.850Z,0.82
2019-01-27T16:31:25.258Z,0.80
2019-01-27T16:33:59.284Z,0.60
2019-01-27T16:36:28.572Z,0.80
2019-01-27T16:38:57.435Z,0.80
2019-01-27T16:41:26.779Z,0.90
2019-01-27T16:43:55.788Z,0.98
2019-01-27T16:46:24.806Z,1.03
2019-01-27T16:48:53.819Z,0.90
2019-01-27T16:51:22.732Z,0.90
2019-01-27T16:53:51.659Z,1.00
2019-01-27T16:56:20.635Z,1.00
2019-01-27T16:58:49.950Z,1.40
2019-01-27T17:01:19.046Z,1.82
2019-01-27T17:03:48.064Z,1.67
2019-01-27T17:06:16.978Z,1.70
2019-01-27T17:08:46.059Z,1.30
2019-01-27T17:11:15.079Z,1.20
2019-01-27T17:13:44.031Z,1.65
2019-01-27T17:16:13.078Z,1.40
2019-01-27T17:18:45.065Z,1.50
2019-01-27T17:21:14.924Z,1.47
2019-01-27T17:23:43.883Z,1.42
2019-01-27T17:26:13.201Z,1.83
2019-01-27T17:28:42.541Z,1.40
2019-01-27T17:31:11.519Z,1.50
2019-01-27T17:33:40.399Z,1.02
2019-01-27T17:36:09.720Z,1.40
2019-01-27T17:38:40.456Z,1.32
2019-01-27T17:41:09.426Z,1.70
2019-01-27T17:43:38.332Z,1.77
2019-01-27T17:46:07.330Z,1.87
2019-01-27T17:48:36.421Z,1.70
2019-01-27T17:51:05.536Z,2.10
2019-01-27T17:53:57.077Z,2.12
2019-01-27T17:56:26.220Z,2.13
2019-01-27T17:59:14.183Z,2.20
2019-01-27T18:02:10.291Z,2.40
2019-01-27T18:04:54.098Z,2.47
2019-01-27T18:07:38.654Z,2.53
2019-01-27T18:10:24.338Z,2.75
2019-01-27T18:13:07.028Z,2.40
2019-01-27T18:15:36.005Z,2.53
2019-01-27T18:18:05.046Z,2.83
2019-01-27T18:20:34.050Z,2.77
2019-01-27T18:23:02.969Z,2.35
2019-01-27T18:25:31.967Z,2.40
2019-01-27T18:28:00.898Z,2.62
2019-01-27T18:30:30.173Z,2.37
2019-01-27T18:32:59.145Z,3.15
2019-01-27T18:35:28.160Z,2.47
2019-01-27T18:37:57.128Z,2.55
2019-01-27T18:40:26.126Z,2.98
2019-01-27T18:42:55.069Z,2.85
2019-01-27T18:45:24.075Z,2.70
2019-01-27T18:47:53.260Z,2.30
2019-01-27T18:50:22.494Z,2.40
2019-01-27T18:52:59.942Z,2.17
2019-01-27T18:55:50.823Z,2.43
2019-01-27T18:58:38.018Z,1.92
2019-01-27T19:01:25.514Z,2.07
2019-01-27T19:04:18.434Z,1.57
2019-01-27T19:07:05.505Z,1.87
2019-01-27T19:09:44.926Z,1.87
2019-01-27T19:12:31.630Z,1.90
2019-01-27T19:15:25.663Z,1.90
2019-01-27T19:18:12.582Z,2.17
2019-01-27T19:21:06.721Z,2.20
2019-01-27T19:24:00.987Z,2.22
2019-01-27T19:26:54.984Z,1.63
2019-01-27T19:29:33.512Z,1.85
2019-01-27T19:32:24.730Z,2.10
2019-01-27T19:35:10.654Z,2.35
2019-01-27T19:38:04.496Z,2.70
2019-01-27T19:40:40.831Z,2.30
2019-01-27T19:43:34.888Z,2.50
2019-01-27T19:46:10.707Z,2.67
2019-01-27T19:48:57.204Z,2.40
2019-01-27T19:51:35.250Z,2.47
2019-01-27T19:54:22.393Z,2.37
2019-01-27T19:57:04.886Z,2.53
2019-01-27T19:59:59.279Z,2.60
2019-01-27T20:02:53.336Z,2.70
2019-01-27T20:05:32.186Z,2.40
2019-01-27T20:08:08.693Z,2.67
2019-01-27T20:10:51.467Z,2.43
2019-01-27T20:13:44.240Z,2.80
2019-01-27T20:16:30.299Z,2.87
2019-01-27T20:19:16.935Z,2.72
2019-01-27T20:22:04.915Z,2.80
2019-01-27T20:24:56.086Z,2.80
2019-01-27T20:27:39.188Z,3.53
2019-01-27T20:30:35.472Z,2.70
2019-01-27T20:33:23.010Z,2.62
2019-01-27T20:36:12.826Z,3.13
2019-01-27T20:38:58.739Z,3.27
2019-01-27T20:41:45.360Z,2.92
2019-01-27T20:44:36.389Z,2.58
2019-01-27T20:47:27.746Z,3.20
2019-01-27T20:50:34.220Z,3.00
2019-01-27T20:53:22.581Z,3.33
2019-01-27T20:56:00.076Z,3.10
2019-01-27T20:58:54.862Z,2.75
2019-01-27T21:01:48.946Z,3.07
2019-01-27T21:04:26.542Z,2.92
2019-01-27T21:07:10.619Z,3.17
2019-01-27T21:09:52.096Z,2.90
2019-01-27T21:12:46.983Z,3.00
2019-01-27T21:15:38.380Z,3.08
2019-01-27T21:18:32.270Z,2.60
2019-01-27T21:21:01.223Z,2.90
2019-01-27T21:23:30.119Z,2.62
2019-01-27T21:25:59.062Z,2.53
2019-01-27T21:28:28.071Z,2.45
2019-01-27T21:30:56.999Z,2.13
2019-01-27T21:33:26.036Z,2.98
2019-01-27T21:35:55.118Z,2.40
2019-01-27T21:38:24.045Z,3.15
2019-01-27T21:40:53.155Z,3.10
2019-01-27T21:43:21.957Z,3.35
2019-01-27T21:45:51.090Z,3.67
2019-01-27T21:48:20.172Z,3.12
2019-01-27T21:50:49.547Z,3.87
2019-01-27T21:53:18.700Z,3.42
2019-01-27T21:55:47.901Z,3.60
2019-01-27T21:58:17.048Z,3.12
2019-01-27T22:00:46.317Z,3.07
2019-01-27T22:03:15.679Z,3.12
2019-01-27T22:05:44.751Z,3.80
2019-01-27T22:08:13.590Z,4.40
2019-01-27T22:10:42.583Z,4.60
2019-01-27T22:13:11.489Z,4.72
2019-01-27T22:15:40.810Z,4.43
2019-01-27T22:18:09.643Z,3.70
2019-01-27T22:20:38.719Z,4.10
2019-01-27T22:23:08.177Z,3.65
2019-01-27T22:25:37.685Z,3.10
2019-01-27T22:28:06.611Z,2.60
2019-01-27T22:30:35.663Z,2.70
2019-01-27T22:33:04.657Z,2.50
2019-01-27T22:35:33.707Z,2.40
2019-01-27T22:38:03.096Z,2.85
2019-01-27T22:40:31.987Z,1.90
2019-01-27T22:43:00.819Z,2.08
2019-01-27T22:45:29.742Z,2.00
2019-01-27T22:47:58.752Z,2.00
2019-01-27T22:50:27.718Z,2.53
2019-01-27T22:52:56.714Z,2.12
2019-01-27T22:55:25.686Z,2.35
2019-01-27T22:57:54.619Z,2.22
2019-01-27T23:00:58.655Z,2.10
2019-01-27T23:03:28.784Z,1.95
2019-01-27T23:05:57.838Z,2.23
2019-01-27T23:08:26.818Z,2.05
2019-01-27T23:10:55.643Z,2.00
2019-01-27T23:13:24.626Z,2.00
2019-01-27T23:15:53.615Z,1.75
2019-01-27T23:18:22.550Z,2.30
2019-01-27T23:20:51.542Z,1.87
2019-01-27T23:23:21.613Z,2.55
2019-01-27T23:25:50.601Z,2.10
2019-01-27T23:28:19.666Z,2.05
2019-01-27T23:30:48.655Z,2.00
2019-01-27T23:33:18.151Z,2.45
2019-01-27T23:35:47.159Z,2.33
2019-01-27T23:38:16.158Z,2.10
2019-01-27T23:40:45.358Z,2.40
2019-01-27T23:43:14.347Z,2.02
2019-01-27T23:45:43.250Z,2.87
2019-01-27T23:48:12.235Z,2.50
2019-01-27T23:50:41.234Z,2.10
2019-01-27T23:53:10.200Z,2.60
2019-01-27T23:55:39.119Z,2.30
2019-01-27T23:58:08.403Z,2.52
